sensor_id;sensor_type;location;lat;lon;timestamp;pressure;altitude;pressure_sealevel;temperature
68446;BMP280;35789;48.414;12.768;2023-02-14T00:00:00;99000.0;;;
68446;BMP280;35789;48.414;12.768;2023-02-14T00:05:00;99010.0;;;
68446;BMP280;35789;48.414;12.768;2023-02-14T00:10:00;99010.0;;;
68446;BMP280;35789;48.414;12.768;2023-02-14T00:15:00;99000.0;;;
68446;BMP280;35789;48.414;12.768;2023-02-14T00:20:00;98990.0;;;
68446;BMP280;35789;48.414;12.768;2023-02-14T00:25:00;98990.0;;;
68446;BMP280;35789;48.414;12.768;2023-02-14T00:30:00;98990.0;;;
68446;BMP280;35789;48.414;12.768;2023-02-14T00:35:00;98980.0;;;
68446;BMP280;35789;48.414;12.768;2023-02-14T00:40:00;98990.0;;;
68446;BMP280;35789;48.414;12.768;2023-02-14T00:45:00;98990.0;;;
68446;BMP280;35789;48.414;12.768;2023-02-14T00:50:00;99000.0;;;
68446;BMP280;35789;48.414;12.768;2023-02-14T00:55:00;98990.0;;;
68446;BMP280;35789;48.414;12.768;2023-02-14T01:00:00;99000.0;;;
68446;BMP280;35789;48.414;12.768;2023-02-14T01:05:00;99000.0;;;
68446;BMP280;35789;48.414;12.768;2023-02-14T01:10:00;99010.0;;;
68446;BMP280;35789;48.414;12.768;2023-02-14T01:15:00;99000.0;;;
68446;BMP280;35789;48.414;12.768;2023-02-14T01:20:00;99000.0;;;
68446;BMP280;35789;48.414;12.768;2023-02-14T01:25:00;98990.0;;;
68446;BMP280;35789;48.414;12.768;2023-02-14T01:30:00;98990.0;;;
68446;BMP280;35789;48.414;12.768;2023-02-14T01:35:00;98980.0;;;
68446;BMP280;35789;48.414;12.768;2023-02-14T01:40:00;98990.0;;;
68446;BMP280;35789;48.414;12.768;2023-02-14T01:45:04;98980.0;;;
68446;BMP280;35789;48.414;12.768;2023-02-14T01:50:07;98980.0;;;
68446;BMP280;35789;48.414;12.768;2023-02-14T01:55:05;98990.0;;;
68446;BMP280;35789;48.414;12.768;2023-02-14T02:00:01;98980.0;;;
68446;BMP280;35789;48.414;12.768;2023-02-14T02:05:00;98980.0;;;
68446;BMP280;35789;48.414;12.768;2023-02-14T02:10:05;98980.0;;;
68446;BMP280;35789;48.414;12.768;2023-02-14T02:15:01;98990.0;;;
68446;BMP280;35789;48.414;12.768;2023-02-14T02:25:17;98980.0;;;
68446;BMP280;35789;48.414;12.768;2023-02-14T02:30:28;98980.0;;;
68446;BMP280;35789;48.414;12.768;2023-02-14T02:35:16;98970.0;;;
68446;BMP280;35789;48.414;12.768;2023-02-14T02:40:22;98980.0;;;
68446;BMP280;35789;48.414;12.768;2023-02-14T02:45:10;98970.0;;;
68446;BMP280;35789;48.414;12.768;2023-02-14T02:50:10;98960.0;;;
68446;BMP280;35789;48.414;12.768;2023-02-14T02:55:05;98960.0;;;
68446;BMP280;35789;48.414;12.768;2023-02-14T03:00:03;98960.0;;;
68446;BMP280;35789;48.414;12.768;2023-02-14T03:05:04;98960.0;;;
68446;BMP280;35789;48.414;12.768;2023-02-14T03:10:06;98960.0;;;
68446;BMP280;35789;48.414;12.768;2023-02-14T03:15:11;98960.0;;;
68446;BMP280;35789;48.414;12.768;2023-02-14T03:20:07;98960.0;;;
68446;BMP280;35789;48.414;12.768;2023-02-14T03:25:10;98970.0;;;
68446;BMP280;35789;48.414;12.768;2023-02-14T03:30:13;98970.0;;;
68446;BMP280;35789;48.414;12.768;2023-02-14T03:35:11;98960.0;;;
68446;BMP280;35789;48.414;12.768;2023-02-14T03:40:07;98960.0;;;
68446;BMP280;35789;48.414;12.768;2023-02-14T03:45:05;98960.0;;;
68446;BMP280;35789;48.414;12.768;2023-02-14T03:50:06;98960.0;;;
68446;BMP280;35789;48.414;12.768;2023-02-14T03:55:04;98960.0;;;
68446;BMP280;35789;48.414;12.768;2023-02-14T04:00:00;98960.0;;;
68446;BMP280;35789;48.414;12.768;2023-02-14T04:05:06;98960.0;;;
68446;BMP280;35789;48.414;12.768;2023-02-14T04:10:00;98960.0;;;
68446;BMP280;35789;48.414;12.768;2023-02-14T04:15:00;98960.0;;;
68446;BMP280;35789;48.414;12.768;2023-02-14T04:20:00;98960.0;;;
68446;BMP280;35789;48.414;12.768;2023-02-14T04:25:00;98970.0;;;
68446;BMP280;35789;48.414;12.768;2023-02-14T04:30:00;98960.0;;;
68446;BMP280;35789;48.414;12.768;2023-02-14T04:35:00;98950.0;;;
68446;BMP280;35789;48.414;12.768;2023-02-14T04:40:00;98950.0;;;
68446;BMP280;35789;48.414;12.768;2023-02-14T04:45:00;98940.0;;;
68446;BMP280;35789;48.414;12.768;2023-02-14T04:50:00;98940.0;;;
68446;BMP280;35789;48.414;12.768;2023-02-14T04:55:00;98940.0;;;
68446;BMP280;35789;48.414;12.768;2023-02-14T05:00:00;98950.0;;;
68446;BMP280;35789;48.414;12.768;2023-02-14T05:05:00;98950.0;;;
68446;BMP280;35789;48.414;12.768;2023-02-14T05:10:00;98940.0;;;
68446;BMP280;35789;48.414;12.768;2023-02-14T05:15:00;98930.0;;;
68446;BMP280;35789;48.414;12.768;2023-02-14T05:20:00;98940.0;;;
68446;BMP280;35789;48.414;12.768;2023-02-14T05:25:00;98940.0;;;
68446;BMP280;35789;48.414;12.768;2023-02-14T05:30:00;98940.0;;;
68446;BMP280;35789;48.414;12.768;2023-02-14T05:35:00;98940.0;;;
68446;BMP280;35789;48.414;12.768;2023-02-14T05:40:00;98940.0;;;
68446;BMP280;35789;48.414;12.768;2023-02-14T05:45:00;98940.0;;;
68446;BMP280;35789;48.414;12.768;2023-02-14T05:50:00;98940.0;;;
68446;BMP280;35789;48.414;12.768;2023-02-14T05:55:00;98940.0;;;
68446;BMP280;35789;48.414;12.768;2023-02-14T06:00:00;98950.0;;;
68446;BMP280;35789;48.414;12.768;2023-02-14T06:05:00;98940.0;;;
68446;BMP280;35789;48.414;12.768;2023-02-14T06:10:00;98960.0;;;
68446;BMP280;35789;48.414;12.768;2023-02-14T06:15:00;98960.0;;;
68446;BMP280;35789;48.414;12.768;2023-02-14T06:20:00;98960.0;;;
68446;BMP280;35789;48.414;12.768;2023-02-14T06:25:00;98960.0;;;
68446;BMP280;35789;48.414;12.768;2023-02-14T06:30:00;98970.0;;;
68446;BMP280;35789;48.414;12.768;2023-02-14T06:35:00;98970.0;;;
68446;BMP280;35789;48.414;12.768;2023-02-14T06:40:00;98970.0;;;
68446;BMP280;35789;48.414;12.768;2023-02-14T06:45:00;98970.0;;;
68446;BMP280;35789;48.414;12.768;2023-02-14T06:50:00;98960.0;;;
68446;BMP280;35789;48.414;12.768;2023-02-14T06:55:00;98960.0;;;
68446;BMP280;35789;48.414;12.768;2023-02-14T07:00:00;98950.0;;;
68446;BMP280;35789;48.414;12.768;2023-02-14T07:05:00;98960.0;;;
68446;BMP280;35789;48.414;12.768;2023-02-14T07:10:00;98960.0;;;
68446;BMP280;35789;48.414;12.768;2023-02-14T07:15:00;98960.0;;;
68446;BMP280;35789;48.414;12.768;2023-02-14T07:20:00;98960.0;;;
68446;BMP280;35789;48.414;12.768;2023-02-14T07:25:00;98960.0;;;
68446;BMP280;35789;48.414;12.768;2023-02-14T07:30:01;98950.0;;;
68446;BMP280;35789;48.414;12.768;2023-02-14T07:35:00;98950.0;;;
68446;BMP280;35789;48.414;12.768;2023-02-14T07:40:01;98940.0;;;
68446;BMP280;35789;48.414;12.768;2023-02-14T07:45:00;98930.0;;;
68446;BMP280;35789;48.414;12.768;2023-02-14T07:50:00;98930.0;;;
68446;BMP280;35789;48.414;12.768;2023-02-14T07:55:00;98930.0;;;
68446;BMP280;35789;48.414;12.768;2023-02-14T08:00:00;98940.0;;;
68446;BMP280;35789;48.414;12.768;2023-02-14T08:05:00;98930.0;;;
68446;BMP280;35789;48.414;12.768;2023-02-14T08:10:00;98930.0;;;
68446;BMP280;35789;48.414;12.768;2023-02-14T08:15:00;98930.0;;;
68446;BMP280;35789;48.414;12.768;2023-02-14T08:20:00;98930.0;;;
68446;BMP280;35789;48.414;12.768;2023-02-14T08:25:00;98940.0;;;
68446;BMP280;35789;48.414;12.768;2023-02-14T08:30:00;98930.0;;;
68446;BMP280;35789;48.414;12.768;2023-02-14T08:35:00;98940.0;;;
68446;BMP280;35789;48.414;12.768;2023-02-14T08:40:00;98940.0;;;
68446;BMP280;35789;48.414;12.768;2023-02-14T08:45:00;98930.0;;;
68446;BMP280;35789;48.414;12.768;2023-02-14T08:50:00;98930.0;;;
68446;BMP280;35789;48.414;12.768;2023-02-14T08:55:00;98930.0;;;
68446;BMP280;35789;48.414;12.768;2023-02-14T09:00:00;98930.0;;;
68446;BMP280;35789;48.414;12.768;2023-02-14T09:05:00;98940.0;;;
68446;BMP280;35789;48.414;12.768;2023-02-14T09:10:00;98930.0;;;
68446;BMP280;35789;48.414;12.768;2023-02-14T09:15:00;98920.0;;;
68446;BMP280;35789;48.414;12.768;2023-02-14T09:20:00;98910.0;;;
68446;BMP280;35789;48.414;12.768;2023-02-14T09:25:00;98920.0;;;
68446;BMP280;35789;48.414;12.768;2023-02-14T09:30:00;98920.0;;;
68446;BMP280;35789;48.414;12.768;2023-02-14T09:35:00;98920.0;;;
68446;BMP280;35789;48.414;12.768;2023-02-14T09:40:00;98910.0;;;
68446;BMP280;35789;48.414;12.768;2023-02-14T09:45:04;98900.0;;;
68446;BMP280;35789;48.414;12.768;2023-02-14T09:50:04;98900.0;;;
68446;BMP280;35789;48.414;12.768;2023-02-14T09:55:02;98910.0;;;
68446;BMP280;35789;48.414;12.768;2023-02-14T10:00:16;98900.0;;;
68446;BMP280;35789;48.414;12.768;2023-02-14T10:05:11;98900.0;;;
68446;BMP280;35789;48.414;12.768;2023-02-14T10:10:09;98910.0;;;
68446;BMP280;35789;48.414;12.768;2023-02-14T10:15:10;98910.0;;;
68446;BMP280;35789;48.414;12.768;2023-02-14T10:20:04;98910.0;;;
68446;BMP280;35789;48.414;12.768;2023-02-14T10:25:06;98900.0;;;
68446;BMP280;35789;48.414;12.768;2023-02-14T10:30:11;98890.0;;;
68446;BMP280;35789;48.414;12.768;2023-02-14T10:35:10;98890.0;;;
68446;BMP280;35789;48.414;12.768;2023-02-14T10:40:24;98890.0;;;
68446;BMP280;35789;48.414;12.768;2023-02-14T10:45:11;98890.0;;;
68446;BMP280;35789;48.414;12.768;2023-02-14T10:50:10;98870.0;;;
68446;BMP280;35789;48.414;12.768;2023-02-14T10:55:11;98870.0;;;
68446;BMP280;35789;48.414;12.768;2023-02-14T11:00:04;98870.0;;;
68446;BMP280;35789;48.414;12.768;2023-02-14T11:05:03;98860.0;;;
68446;BMP280;35789;48.414;12.768;2023-02-14T11:10:00;98860.0;;;
68446;BMP280;35789;48.414;12.768;2023-02-14T11:15:19;98850.0;;;
68446;BMP280;35789;48.414;12.768;2023-02-14T11:20:20;98850.0;;;
68446;BMP280;35789;48.414;12.768;2023-02-14T11:25:03;98850.0;;;
68446;BMP280;35789;48.414;12.768;2023-02-14T11:30:00;98850.0;;;
68446;BMP280;35789;48.414;12.768;2023-02-14T11:35:04;98860.0;;;
68446;BMP280;35789;48.414;12.768;2023-02-14T11:40:01;98850.0;;;
68446;BMP280;35789;48.414;12.768;2023-02-14T11:45:01;98840.0;;;
68446;BMP280;35789;48.414;12.768;2023-02-14T11:50:06;98840.0;;;
68446;BMP280;35789;48.414;12.768;2023-02-14T11:55:00;98840.0;;;
68446;BMP280;35789;48.414;12.768;2023-02-14T12:00:12;98840.0;;;
68446;BMP280;35789;48.414;12.768;2023-02-14T12:05:04;98830.0;;;
68446;BMP280;35789;48.414;12.768;2023-02-14T12:10:18;98820.0;;;
68446;BMP280;35789;48.414;12.768;2023-02-14T12:15:22;98800.0;;;
68446;BMP280;35789;48.414;12.768;2023-02-14T12:20:08;98800.0;;;
68446;BMP280;35789;48.414;12.768;2023-02-14T12:25:10;98790.0;;;
68446;BMP280;35789;48.414;12.768;2023-02-14T12:30:08;98790.0;;;
68446;BMP280;35789;48.414;12.768;2023-02-14T12:35:12;98790.0;;;
68446;BMP280;35789;48.414;12.768;2023-02-14T12:40:12;98780.0;;;
68446;BMP280;35789;48.414;12.768;2023-02-14T12:45:09;98780.0;;;
68446;BMP280;35789;48.414;12.768;2023-02-14T12:50:22;98780.0;;;
68446;BMP280;35789;48.414;12.768;2023-02-14T12:55:22;98770.0;;;
68446;BMP280;35789;48.414;12.768;2023-02-14T13:00:18;98770.0;;;
68446;BMP280;35789;48.414;12.768;2023-02-14T13:05:13;98750.0;;;
68446;BMP280;35789;48.414;12.768;2023-02-14T13:10:13;98760.0;;;
68446;BMP280;35789;48.414;12.768;2023-02-14T13:15:15;98740.0;;;
68446;BMP280;35789;48.414;12.768;2023-02-14T13:20:21;98730.0;;;
68446;BMP280;35789;48.414;12.768;2023-02-14T13:25:05;98730.0;;;
68446;BMP280;35789;48.414;12.768;2023-02-14T13:30:05;98730.0;;;
68446;BMP280;35789;48.414;12.768;2023-02-14T13:35:01;98720.0;;;
68446;BMP280;35789;48.414;12.768;2023-02-14T13:40:05;98720.0;;;
68446;BMP280;35789;48.414;12.768;2023-02-14T13:45:00;98720.0;;;
68446;BMP280;35789;48.414;12.768;2023-02-14T13:50:02;98720.0;;;
68446;BMP280;35789;48.414;12.768;2023-02-14T13:55:05;98710.0;;;
68446;BMP280;35789;48.414;12.768;2023-02-14T14:00:22;98710.0;;;
68446;BMP280;35789;48.414;12.768;2023-02-14T14:10:03;98710.0;;;
68446;BMP280;35789;48.414;12.768;2023-02-14T14:15:12;98700.0;;;
68446;BMP280;35789;48.414;12.768;2023-02-14T14:20:05;98700.0;;;
68446;BMP280;35789;48.414;12.768;2023-02-14T14:25:02;98700.0;;;
68446;BMP280;35789;48.414;12.768;2023-02-14T14:30:04;98700.0;;;
68446;BMP280;35789;48.414;12.768;2023-02-14T14:35:03;98700.0;;;
68446;BMP280;35789;48.414;12.768;2023-02-14T14:40:03;98710.0;;;
68446;BMP280;35789;48.414;12.768;2023-02-14T14:45:04;98710.0;;;
68446;BMP280;35789;48.414;12.768;2023-02-14T14:50:07;98700.0;;;
68446;BMP280;35789;48.414;12.768;2023-02-14T14:55:02;98700.0;;;
68446;BMP280;35789;48.414;12.768;2023-02-14T15:00:07;98690.0;;;
68446;BMP280;35789;48.414;12.768;2023-02-14T15:05:22;98680.0;;;
68446;BMP280;35789;48.414;12.768;2023-02-14T15:10:01;98680.0;;;
68446;BMP280;35789;48.414;12.768;2023-02-14T15:15:00;98680.0;;;
68446;BMP280;35789;48.414;12.768;2023-02-14T15:20:03;98670.0;;;
68446;BMP280;35789;48.414;12.768;2023-02-14T15:25:09;98680.0;;;
68446;BMP280;35789;48.414;12.768;2023-02-14T15:30:03;98670.0;;;
68446;BMP280;35789;48.414;12.768;2023-02-14T15:35:03;98670.0;;;
68446;BMP280;35789;48.414;12.768;2023-02-14T15:40:01;98680.0;;;
68446;BMP280;35789;48.414;12.768;2023-02-14T15:45:20;98670.0;;;
68446;BMP280;35789;48.414;12.768;2023-02-14T15:50:00;98680.0;;;
68446;BMP280;35789;48.414;12.768;2023-02-14T15:55:00;98680.0;;;
68446;BMP280;35789;48.414;12.768;2023-02-14T16:00:01;98680.0;;;
68446;BMP280;35789;48.414;12.768;2023-02-14T16:05:03;98680.0;;;
68446;BMP280;35789;48.414;12.768;2023-02-14T16:10:21;98680.0;;;
68446;BMP280;35789;48.414;12.768;2023-02-14T16:15:15;98670.0;;;
68446;BMP280;35789;48.414;12.768;2023-02-14T16:20:18;98680.0;;;
68446;BMP280;35789;48.414;12.768;2023-02-14T16:25:00;98680.0;;;
68446;BMP280;35789;48.414;12.768;2023-02-14T16:30:00;98690.0;;;
68446;BMP280;35789;48.414;12.768;2023-02-14T16:35:00;98690.0;;;
68446;BMP280;35789;48.414;12.768;2023-02-14T16:40:00;98690.0;;;
68446;BMP280;35789;48.414;12.768;2023-02-14T16:45:00;98700.0;;;
68446;BMP280;35789;48.414;12.768;2023-02-14T16:50:00;98700.0;;;
68446;BMP280;35789;48.414;12.768;2023-02-14T16:55:01;98700.0;;;
68446;BMP280;35789;48.414;12.768;2023-02-14T17:00:00;98700.0;;;
68446;BMP280;35789;48.414;12.768;2023-02-14T17:05:00;98710.0;;;
68446;BMP280;35789;48.414;12.768;2023-02-14T17:10:06;98710.0;;;
68446;BMP280;35789;48.414;12.768;2023-02-14T17:15:04;98710.0;;;
68446;BMP280;35789;48.414;12.768;2023-02-14T17:20:01;98710.0;;;
68446;BMP280;35789;48.414;12.768;2023-02-14T17:25:00;98700.0;;;
68446;BMP280;35789;48.414;12.768;2023-02-14T17:30:00;98710.0;;;
68446;BMP280;35789;48.414;12.768;2023-02-14T17:35:00;98710.0;;;
68446;BMP280;35789;48.414;12.768;2023-02-14T17:40:00;98700.0;;;
68446;BMP280;35789;48.414;12.768;2023-02-14T17:45:00;98710.0;;;
68446;BMP280;35789;48.414;12.768;2023-02-14T17:50:00;98710.0;;;
68446;BMP280;35789;48.414;12.768;2023-02-14T17:55:00;98710.0;;;
68446;BMP280;35789;48.414;12.768;2023-02-14T18:00:01;98710.0;;;
68446;BMP280;35789;48.414;12.768;2023-02-14T18:05:00;98710.0;;;
68446;BMP280;35789;48.414;12.768;2023-02-14T18:10:00;98710.0;;;
68446;BMP280;35789;48.414;12.768;2023-02-14T18:15:00;98700.0;;;
68446;BMP280;35789;48.414;12.768;2023-02-14T18:20:00;98700.0;;;
68446;BMP280;35789;48.414;12.768;2023-02-14T18:25:00;98700.0;;;
68446;BMP280;35789;48.414;12.768;2023-02-14T18:30:00;98690.0;;;
68446;BMP280;35789;48.414;12.768;2023-02-14T18:35:00;98690.0;;;
68446;BMP280;35789;48.414;12.768;2023-02-14T18:40:00;98690.0;;;
68446;BMP280;35789;48.414;12.768;2023-02-14T18:45:00;98690.0;;;
68446;BMP280;35789;48.414;12.768;2023-02-14T18:50:00;98690.0;;;
68446;BMP280;35789;48.414;12.768;2023-02-14T18:55:00;98680.0;;;
68446;BMP280;35789;48.414;12.768;2023-02-14T19:00:01;98680.0;;;
68446;BMP280;35789;48.414;12.768;2023-02-14T19:05:00;98680.0;;;
68446;BMP280;35789;48.414;12.768;2023-02-14T19:10:01;98690.0;;;
68446;BMP280;35789;48.414;12.768;2023-02-14T19:15:01;98680.0;;;
68446;BMP280;35789;48.414;12.768;2023-02-14T19:20:00;98680.0;;;
68446;BMP280;35789;48.414;12.768;2023-02-14T19:25:00;98680.0;;;
68446;BMP280;35789;48.414;12.768;2023-02-14T19:30:00;98670.0;;;
68446;BMP280;35789;48.414;12.768;2023-02-14T19:35:00;98670.0;;;
68446;BMP280;35789;48.414;12.768;2023-02-14T19:40:00;98660.0;;;
68446;BMP280;35789;48.414;12.768;2023-02-14T19:45:00;98660.0;;;
68446;BMP280;35789;48.414;12.768;2023-02-14T19:50:00;98660.0;;;
68446;BMP280;35789;48.414;12.768;2023-02-14T19:55:00;98660.0;;;
68446;BMP280;35789;48.414;12.768;2023-02-14T20:00:00;98660.0;;;
68446;BMP280;35789;48.414;12.768;2023-02-14T20:05:00;98660.0;;;
68446;BMP280;35789;48.414;12.768;2023-02-14T20:10:00;98660.0;;;
68446;BMP280;35789;48.414;12.768;2023-02-14T20:15:00;98660.0;;;
68446;BMP280;35789;48.414;12.768;2023-02-14T20:20:00;98660.0;;;
68446;BMP280;35789;48.414;12.768;2023-02-14T20:25:00;98660.0;;;
68446;BMP280;35789;48.414;12.768;2023-02-14T20:30:00;98650.0;;;
68446;BMP280;35789;48.414;12.768;2023-02-14T20:35:00;98650.0;;;
68446;BMP280;35789;48.414;12.768;2023-02-14T20:40:00;98650.0;;;
68446;BMP280;35789;48.414;12.768;2023-02-14T20:45:00;98650.0;;;
68446;BMP280;35789;48.414;12.768;2023-02-14T20:50:00;98650.0;;;
68446;BMP280;35789;48.414;12.768;2023-02-14T20:55:00;98640.0;;;
68446;BMP280;35789;48.414;12.768;2023-02-14T21:00:00;98640.0;;;
68446;BMP280;35789;48.414;12.768;2023-02-14T21:05:00;98640.0;;;
68446;BMP280;35789;48.414;12.768;2023-02-14T21:10:00;98630.0;;;
68446;BMP280;35789;48.414;12.768;2023-02-14T21:15:00;98630.0;;;
68446;BMP280;35789;48.414;12.768;2023-02-14T21:20:00;98640.0;;;
68446;BMP280;35789;48.414;12.768;2023-02-14T21:25:00;98640.0;;;
68446;BMP280;35789;48.414;12.768;2023-02-14T21:30:00;98630.0;;;
68446;BMP280;35789;48.414;12.768;2023-02-14T21:35:00;98630.0;;;
68446;BMP280;35789;48.414;12.768;2023-02-14T21:40:00;98630.0;;;
68446;BMP280;35789;48.414;12.768;2023-02-14T21:45:00;98630.0;;;
68446;BMP280;35789;48.414;12.768;2023-02-14T21:50:00;98630.0;;;
68446;BMP280;35789;48.414;12.768;2023-02-14T21:55:00;98620.0;;;
68446;BMP280;35789;48.414;12.768;2023-02-14T22:00:00;98610.0;;;
68446;BMP280;35789;48.414;12.768;2023-02-14T22:05:00;98610.0;;;
68446;BMP280;35789;48.414;12.768;2023-02-14T22:10:01;98610.0;;;
68446;BMP280;35789;48.414;12.768;2023-02-14T22:15:00;98590.0;;;
68446;BMP280;35789;48.414;12.768;2023-02-14T22:20:00;98590.0;;;
68446;BMP280;35789;48.414;12.768;2023-02-14T22:25:00;98590.0;;;
68446;BMP280;35789;48.414;12.768;2023-02-14T22:30:00;98600.0;;;
68446;BMP280;35789;48.414;12.768;2023-02-14T22:35:00;98590.0;;;
68446;BMP280;35789;48.414;12.768;2023-02-14T22:40:00;98590.0;;;
68446;BMP280;35789;48.414;12.768;2023-02-14T22:45:00;98590.0;;;
68446;BMP280;35789;48.414;12.768;2023-02-14T22:50:00;98580.0;;;
68446;BMP280;35789;48.414;12.768;2023-02-14T22:55:00;98580.0;;;
68446;BMP280;35789;48.414;12.768;2023-02-14T23:00:00;98590.0;;;
68446;BMP280;35789;48.414;12.768;2023-02-14T23:05:00;98590.0;;;
68446;BMP280;35789;48.414;12.768;2023-02-14T23:10:00;98590.0;;;
68446;BMP280;35789;48.414;12.768;2023-02-14T23:15:00;98580.0;;;
68446;BMP280;35789;48.414;12.768;2023-02-14T23:20:00;98580.0;;;
68446;BMP280;35789;48.414;12.768;2023-02-14T23:25:03;98570.0;;;
68446;BMP280;35789;48.414;12.768;2023-02-14T23:30:01;98570.0;;;
68446;BMP280;35789;48.414;12.768;2023-02-14T23:35:00;98580.0;;;
68446;BMP280;35789;48.414;12.768;2023-02-14T23:40:00;98570.0;;;
68446;BMP280;35789;48.414;12.768;2023-02-14T23:45:00;98560.0;;;
68446;BMP280;35789;48.414;12.768;2023-02-14T23:50:00;98560.0;;;
68446;BMP280;35789;48.414;12.768;2023-02-14T23:55:00;98550.0;;;
